KFRR

Front Royal-Warren County Airport

Front Royal, Virginia, USA
METAR KFRR 182335Z AUTO 00000KT 10SM SCT075 SCT100 23/22 A2986 RMK AO1
Observed Flight Rules
Aug-18 @ 23:35 UTC (12 minutes ago) Visual Flight Rules
Visibility Clouds
10 miles
  • Scattered at 7,500' AGL
  • Scattered at 10,000' AGL
Temperatures Readings
Current 23°C / 73°F
Dewpoint 22°C / 72°F
Humidity 94%
Altimeter 29.86" Hg
Pressure 1011 hPa
Elevation 216
METAR KFRR 182335Z AUTO 00000KT 10SM SCT075 SCT100 23/22 A2986 RMK AO1
Observed Flight Rules
Aug-18 @ 23:35 UTC
(12 minutes ago)
VFR
Clouds
  • Scattered at 7,500' AGL
  • Scattered at 10,000' AGL
Temperature Dewpoint
23°C / 73°F 22°C / 72°F
Humidity Altimeter Pressure
94% 29.86" Hg 1011 hPa